createdAt,value
2023-08-16T00:01:50.958Z,0.20
2023-08-16T00:04:18.304Z,0.10
2023-08-16T00:06:47.018Z,0.17
2023-08-16T00:09:14.586Z,0.10
2023-08-16T00:11:41.601Z,0.10
2023-08-16T00:14:08.909Z,0.20
2023-08-16T00:16:35.834Z,0.10
2023-08-16T00:19:03.168Z,0.13
2023-08-16T00:21:30.056Z,0.10
2023-08-16T00:23:58.886Z,0.10
2023-08-16T00:26:25.768Z,0.20
2023-08-16T00:28:53.286Z,0.10
2023-08-16T00:31:20.474Z,0.20
2023-08-16T00:33:47.769Z,0.15
2023-08-16T00:36:14.881Z,0.20
2023-08-16T00:38:45.175Z,0.20
2023-08-16T00:41:14.093Z,0.20
2023-08-16T00:43:41.922Z,0.10
2023-08-16T00:46:11.457Z,0.20
2023-08-16T00:48:40.654Z,0.20
2023-08-16T00:51:08.489Z,0.20
2023-08-16T00:53:38.044Z,0.10
2023-08-16T00:56:06.055Z,0.15
2023-08-16T00:58:34.819Z,0.10
2023-08-16T01:01:01.798Z,0.20
2023-08-16T01:03:28.933Z,0.20
2023-08-16T01:05:55.906Z,0.20
2023-08-16T01:08:23.163Z,0.10
2023-08-16T01:10:55.734Z,0.20
2023-08-16T01:13:27.593Z,0.20
2023-08-16T01:15:58.265Z,0.10
2023-08-16T01:18:26.956Z,0.10
2023-08-16T01:20:54.775Z,0.20
2023-08-16T01:23:32.040Z,0.20
2023-08-16T01:26:07.275Z,0.20
2023-08-16T01:28:37.559Z,0.17
2023-08-16T01:31:05.346Z,0.10
2023-08-16T01:33:32.934Z,0.10
2023-08-16T01:35:59.939Z,0.10
2023-08-16T01:38:27.407Z,0.10
2023-08-16T01:40:59.131Z,0.10
2023-08-16T01:43:27.133Z,0.20
2023-08-16T01:45:56.406Z,0.20
2023-08-16T01:48:25.258Z,0.20
2023-08-16T01:50:53.053Z,0.20
2023-08-16T01:53:20.770Z,0.20
2023-08-16T01:55:48.392Z,0.20
2023-08-16T01:58:15.491Z,0.10
2023-08-16T02:00:42.896Z,0.20
2023-08-16T02:03:11.300Z,0.15
2023-08-16T02:05:38.770Z,0.20
2023-08-16T02:08:05.935Z,0.20
2023-08-16T02:10:33.148Z,0.15
2023-08-16T02:13:00.101Z,0.20
2023-08-16T02:15:27.512Z,0.20
2023-08-16T02:17:54.477Z,0.13
2023-08-16T02:20:23.264Z,0.20
2023-08-16T02:22:50.277Z,0.20
2023-08-16T02:25:17.655Z,0.10
2023-08-16T02:27:45.336Z,0.20
2023-08-16T02:30:12.781Z,0.17
2023-08-16T02:32:39.873Z,0.20
2023-08-16T02:35:07.471Z,0.20
2023-08-16T02:37:35.827Z,0.20
2023-08-16T02:40:03.478Z,0.20
2023-08-16T02:42:30.369Z,0.20
2023-08-16T02:44:57.779Z,0.20
2023-08-16T02:47:25.029Z,0.10
2023-08-16T02:49:52.499Z,0.20
2023-08-16T02:52:19.498Z,0.20
2023-08-16T02:54:48.134Z,0.20
2023-08-16T02:57:17.333Z,0.17
2023-08-16T02:59:48.682Z,0.20
2023-08-16T03:02:16.110Z,0.20
2023-08-16T03:04:43.273Z,0.20
2023-08-16T03:07:11.808Z,0.30
2023-08-16T03:09:39.461Z,0.17
2023-08-16T03:12:08.560Z,0.10
2023-08-16T03:14:35.820Z,0.20
2023-08-16T03:17:03.266Z,0.20
2023-08-16T03:19:30.766Z,0.20
2023-08-16T03:21:57.896Z,0.13
2023-08-16T03:24:25.186Z,0.20
2023-08-16T03:26:52.100Z,0.15
2023-08-16T03:29:20.902Z,0.20
2023-08-16T03:31:48.246Z,0.20
2023-08-16T03:34:15.543Z,0.20
2023-08-16T03:36:42.604Z,0.20
2023-08-16T03:39:09.986Z,0.20
2023-08-16T03:41:38.310Z,0.20
2023-08-16T03:44:07.632Z,0.20
2023-08-16T03:46:36.186Z,0.20
2023-08-16T03:49:04.084Z,0.20
2023-08-16T03:51:30.983Z,0.20
2023-08-16T03:53:58.310Z,0.20
2023-08-16T03:56:25.243Z,0.20
2023-08-16T03:58:52.236Z,0.13
2023-08-16T04:01:19.452Z,0.20
2023-08-16T04:03:48.228Z,0.20
2023-08-16T04:06:15.561Z,0.20
2023-08-16T04:08:42.950Z,0.20
2023-08-16T04:11:10.147Z,0.20
2023-08-16T04:13:37.275Z,0.20
2023-08-16T04:16:04.979Z,0.20
2023-08-16T04:18:32.084Z,0.20
2023-08-16T04:21:00.943Z,0.20
2023-08-16T04:23:27.821Z,0.20
2023-08-16T04:25:55.093Z,0.20
2023-08-16T04:28:21.952Z,0.10
2023-08-16T04:30:49.199Z,0.20
2023-08-16T04:33:16.237Z,0.13
2023-08-16T04:35:43.473Z,0.20
2023-08-16T04:38:11.996Z,0.20
2023-08-16T04:40:39.260Z,0.20
2023-08-16T04:43:06.163Z,0.20
2023-08-16T04:45:33.380Z,0.20
2023-08-16T04:48:00.351Z,0.20
2023-08-16T04:50:28.095Z,0.20
2023-08-16T04:52:55.134Z,0.20
2023-08-16T04:55:23.748Z,0.20
2023-08-16T04:57:51.307Z,0.20
2023-08-16T05:00:20.803Z,0.20
2023-08-16T05:02:47.985Z,0.20
2023-08-16T05:05:15.487Z,0.17
2023-08-16T05:07:42.376Z,0.20
2023-08-16T05:10:10.008Z,0.20
2023-08-16T05:12:38.291Z,0.20
2023-08-16T05:15:06.451Z,0.20
2023-08-16T05:17:33.418Z,0.20
2023-08-16T05:20:01.142Z,0.20
2023-08-16T05:22:28.292Z,0.20
2023-08-16T05:24:55.232Z,0.20
2023-08-16T05:27:22.631Z,0.20
2023-08-16T05:29:51.044Z,0.20
2023-08-16T05:32:18.429Z,0.20
2023-08-16T05:34:45.326Z,0.20
2023-08-16T05:37:12.543Z,0.20
2023-08-16T05:39:42.992Z,0.20
2023-08-16T05:42:11.260Z,0.20
2023-08-16T05:44:38.061Z,0.20
2023-08-16T05:47:06.843Z,0.20
2023-08-16T05:49:33.782Z,0.17
2023-08-16T05:52:00.981Z,0.20
2023-08-16T05:54:28.130Z,0.20
2023-08-16T05:56:55.361Z,0.20
2023-08-16T05:59:22.317Z,0.20
2023-08-16T06:01:49.671Z,0.20
2023-08-16T06:04:18.145Z,0.20
2023-08-16T06:06:45.366Z,0.15
2023-08-16T06:09:12.241Z,0.20
2023-08-16T06:11:39.423Z,0.20
2023-08-16T06:14:06.411Z,0.20
2023-08-16T06:16:33.700Z,0.20
2023-08-16T06:19:00.655Z,0.20
2023-08-16T06:21:29.177Z,0.13
2023-08-16T06:23:57.234Z,0.20
2023-08-16T06:26:24.577Z,0.20
2023-08-16T06:28:52.685Z,0.10
2023-08-16T06:31:19.695Z,0.20
2023-08-16T06:33:46.878Z,0.20
2023-08-16T06:36:14.621Z,0.20
2023-08-16T06:38:44.742Z,0.20
2023-08-16T06:41:12.325Z,0.20
2023-08-16T06:43:39.157Z,0.20
2023-08-16T06:46:06.434Z,0.20
2023-08-16T06:48:33.553Z,0.20
2023-08-16T06:51:00.793Z,0.20
2023-08-16T06:53:28.512Z,0.20
2023-08-16T06:55:56.976Z,0.20
2023-08-16T06:58:24.142Z,0.17
2023-08-16T07:00:51.178Z,0.20
2023-08-16T07:03:18.856Z,0.20
2023-08-16T07:05:46.846Z,0.17
2023-08-16T07:08:14.508Z,0.10
2023-08-16T07:10:45.176Z,0.20
2023-08-16T07:13:13.816Z,0.20
2023-08-16T07:15:40.673Z,0.20
2023-08-16T07:18:07.932Z,0.20
2023-08-16T07:20:34.928Z,0.10
2023-08-16T07:23:03.042Z,0.13
2023-08-16T07:25:30.204Z,0.10
2023-08-16T07:27:57.562Z,0.20
2023-08-16T07:30:25.920Z,0.20
2023-08-16T07:32:53.150Z,0.20
2023-08-16T07:35:20.171Z,0.20
2023-08-16T07:37:48.474Z,0.20
2023-08-16T07:40:15.864Z,0.20
2023-08-16T07:42:43.183Z,0.20
2023-08-16T07:45:10.951Z,0.20
2023-08-16T07:47:39.498Z,0.20
2023-08-16T07:50:07.262Z,0.20
2023-08-16T07:52:34.495Z,0.10
2023-08-16T07:55:01.477Z,0.20
2023-08-16T07:57:28.470Z,0.20
2023-08-16T07:59:56.146Z,0.20
2023-08-16T08:02:23.737Z,0.20
2023-08-16T08:04:52.650Z,0.20
2023-08-16T08:07:19.663Z,0.20
2023-08-16T08:09:46.939Z,0.20
2023-08-16T08:12:13.832Z,0.20
2023-08-16T08:14:40.852Z,0.10
2023-08-16T08:17:07.717Z,0.20
2023-08-16T08:19:34.962Z,0.20
2023-08-16T08:22:04.288Z,0.10
2023-08-16T08:24:31.506Z,0.20
2023-08-16T08:26:58.437Z,0.10
2023-08-16T08:29:29.500Z,0.20
2023-08-16T08:31:56.861Z,0.13
2023-08-16T08:34:25.574Z,0.20
2023-08-16T08:36:52.551Z,0.20
2023-08-16T08:39:21.742Z,0.20
2023-08-16T08:41:49.317Z,0.17
2023-08-16T08:44:17.542Z,0.10
2023-08-16T08:46:47.622Z,0.20
2023-08-16T08:49:16.576Z,0.20
2023-08-16T08:51:44.135Z,0.10
2023-08-16T08:54:12.557Z,0.13
2023-08-16T08:56:41.235Z,0.20
2023-08-16T08:59:14.850Z,0.20
2023-08-16T09:01:45.599Z,0.20
2023-08-16T09:04:14.735Z,0.10
2023-08-16T09:06:42.561Z,0.10
2023-08-16T09:09:09.939Z,0.10
2023-08-16T09:11:37.284Z,0.17
2023-08-16T09:14:06.701Z,0.10
2023-08-16T09:16:33.907Z,0.10
2023-08-16T09:19:00.787Z,0.10
2023-08-16T09:21:30.378Z,0.10
2023-08-16T09:23:58.409Z,0.10
2023-08-16T09:26:27.670Z,0.10
2023-08-16T09:28:57.728Z,0.20
2023-08-16T09:31:28.293Z,0.10
2023-08-16T09:34:02.324Z,0.10
2023-08-16T09:36:30.700Z,0.10
2023-08-16T09:39:01.133Z,0.20
2023-08-16T09:41:29.077Z,0.10
2023-08-16T09:44:03.978Z,0.10
2023-08-16T09:46:33.668Z,0.10
2023-08-16T09:54:10.245Z,0.10
2023-08-16T09:56:38.793Z,0.10
2023-08-16T09:59:36.779Z,0.10
2023-08-16T10:02:13.565Z,0.20
2023-08-16T10:07:13.585Z,0.10
2023-08-16T10:09:42.872Z,0.10
2023-08-16T10:12:11.430Z,0.10
2023-08-16T10:14:39.298Z,0.10
2023-08-16T10:17:10.879Z,0.10
2023-08-16T10:19:44.165Z,0.20
2023-08-16T10:22:27.658Z,0.10
2023-08-16T10:25:05.291Z,0.10
2023-08-16T10:27:33.392Z,0.10
2023-08-16T10:32:37.700Z,0.15
2023-08-16T10:35:06.811Z,0.10
2023-08-16T10:37:39.776Z,0.10
2023-08-16T10:40:17.325Z,0.10
2023-08-16T10:42:54.424Z,0.10
2023-08-16T10:45:26.436Z,0.10
2023-08-16T10:47:55.856Z,0.10
2023-08-16T10:50:33.057Z,0.10
2023-08-16T10:53:01.157Z,0.10
2023-08-16T10:55:28.271Z,0.10
2023-08-16T10:57:55.626Z,0.17
2023-08-16T11:00:31.881Z,0.10
2023-08-16T11:03:01.899Z,0.10
2023-08-16T11:05:32.010Z,0.10
2023-08-16T11:08:02.678Z,0.10
2023-08-16T11:10:34.154Z,0.10
2023-08-16T11:13:03.287Z,0.10
2023-08-16T11:15:30.271Z,0.10
2023-08-16T11:18:07.633Z,0.17
2023-08-16T11:20:37.546Z,0.10
2023-08-16T11:23:04.860Z,0.10
2023-08-16T11:25:34.351Z,0.10
2023-08-16T11:28:02.174Z,0.10
2023-08-16T11:30:29.215Z,0.10
2023-08-16T11:32:57.451Z,0.10
2023-08-16T11:35:27.185Z,0.10
2023-08-16T11:37:55.927Z,0.10
2023-08-16T11:40:25.817Z,0.10
2023-08-16T11:42:53.293Z,0.10
2023-08-16T11:45:21.739Z,0.10
2023-08-16T11:47:52.774Z,0.10
2023-08-16T11:50:20.165Z,0.10
2023-08-16T11:52:58.964Z,0.10
2023-08-16T11:55:26.898Z,0.10
2023-08-16T11:57:54.669Z,0.10
2023-08-16T12:00:28.244Z,0.10
2023-08-16T12:02:55.528Z,0.10
2023-08-16T12:05:22.539Z,0.10
2023-08-16T12:07:54.462Z,0.10
2023-08-16T12:10:30.270Z,0.10
2023-08-16T12:12:57.641Z,0.10
2023-08-16T12:15:26.505Z,0.10
2023-08-16T12:17:54.826Z,0.10
2023-08-16T12:20:22.159Z,0.10
2023-08-16T12:22:49.457Z,0.10
2023-08-16T12:25:16.709Z,0.10
2023-08-16T12:27:44.967Z,0.10
2023-08-16T12:30:12.578Z,0.10
2023-08-16T12:32:39.533Z,0.10
2023-08-16T12:35:07.206Z,0.10
2023-08-16T12:37:37.539Z,0.10
2023-08-16T12:40:12.704Z,0.10
2023-08-16T12:42:39.776Z,0.00
2023-08-16T12:45:10.101Z,0.10
2023-08-16T12:47:37.122Z,0.10
2023-08-16T12:50:06.126Z,0.10
2023-08-16T12:52:33.082Z,0.10
2023-08-16T12:55:00.509Z,0.10
2023-08-16T13:02:37.644Z,0.10
2023-08-16T13:07:49.887Z,0.10
2023-08-16T13:15:26.333Z,0.10
2023-08-16T13:20:44.435Z,0.10
2023-08-16T13:23:14.503Z,0.10
2023-08-16T13:28:19.207Z,0.10
2023-08-16T13:30:50.301Z,0.10
2023-08-16T13:33:31.335Z,0.10
2023-08-16T13:41:11.399Z,0.10
2023-08-16T13:43:43.600Z,0.10
2023-08-16T13:46:12.159Z,0.08
2023-08-16T13:48:41.829Z,0.10
2023-08-16T13:51:10.616Z,0.00
2023-08-16T13:53:37.573Z,0.00
2023-08-16T13:56:05.543Z,0.10
2023-08-16T13:58:34.050Z,0.10
2023-08-16T14:01:02.024Z,0.00
2023-08-16T14:03:29.172Z,0.10
2023-08-16T14:05:58.726Z,0.00
2023-08-16T14:08:26.792Z,0.00
2023-08-16T14:10:55.456Z,0.10
2023-08-16T14:13:22.540Z,0.08
2023-08-16T14:15:54.042Z,0.00
2023-08-16T14:18:21.608Z,0.00
2023-08-16T14:20:49.291Z,0.00
2023-08-16T14:23:18.107Z,0.00
2023-08-16T14:25:47.429Z,0.00
2023-08-16T14:28:14.754Z,0.10
2023-08-16T14:30:42.957Z,0.00
2023-08-16T14:33:11.839Z,0.00
2023-08-16T14:35:38.902Z,0.00
2023-08-16T14:38:06.579Z,0.10
2023-08-16T14:40:34.945Z,0.00
2023-08-16T14:43:02.881Z,0.00
2023-08-16T14:45:30.255Z,0.00
2023-08-16T14:47:57.683Z,0.00
2023-08-16T14:50:24.899Z,0.00
2023-08-16T14:52:52.328Z,0.10
2023-08-16T14:55:19.369Z,0.05
2023-08-16T14:57:48.924Z,0.05
2023-08-16T15:00:16.924Z,0.00
2023-08-16T15:02:44.510Z,0.08
2023-08-16T15:05:12.304Z,0.00
2023-08-16T15:07:40.497Z,0.10
2023-08-16T15:10:08.562Z,0.05
2023-08-16T15:12:36.008Z,0.10
2023-08-16T15:15:06.502Z,0.10
2023-08-16T15:17:40.108Z,0.10
2023-08-16T15:20:10.882Z,0.10
2023-08-16T15:22:38.304Z,0.00
2023-08-16T15:25:05.636Z,0.10
2023-08-16T15:27:32.567Z,0.00
2023-08-16T15:29:59.447Z,0.10
2023-08-16T15:32:28.234Z,0.10
2023-08-16T15:34:55.470Z,0.10
2023-08-16T15:37:22.369Z,0.10
2023-08-16T15:39:49.233Z,0.10
2023-08-16T15:42:16.488Z,0.10
2023-08-16T15:44:43.548Z,0.08
2023-08-16T15:47:12.684Z,0.10
2023-08-16T15:49:41.445Z,0.10
2023-08-16T15:52:14.915Z,0.10
2023-08-16T15:54:41.862Z,0.10
2023-08-16T15:57:08.728Z,0.10
2023-08-16T15:59:46.672Z,0.10
2023-08-16T16:02:15.962Z,0.10
2023-08-16T16:04:44.729Z,0.08
2023-08-16T16:07:11.807Z,0.10
2023-08-16T16:09:39.087Z,0.10
2023-08-16T16:12:06.461Z,0.10
2023-08-16T16:14:33.415Z,0.10
2023-08-16T16:17:22.720Z,0.10
2023-08-16T16:19:51.731Z,0.10
2023-08-16T16:22:19.012Z,0.10
2023-08-16T16:24:46.694Z,0.10
2023-08-16T16:27:13.840Z,0.10
2023-08-16T16:29:41.070Z,0.10
2023-08-16T16:32:08.045Z,0.10
2023-08-16T16:34:35.475Z,0.10
2023-08-16T16:37:03.827Z,0.10
2023-08-16T16:39:30.960Z,0.10
2023-08-16T16:42:00.677Z,0.10
2023-08-16T16:44:29.358Z,0.10
2023-08-16T16:46:56.462Z,0.10
2023-08-16T16:49:23.730Z,0.10
2023-08-16T16:51:52.196Z,0.10
2023-08-16T16:54:20.825Z,0.10
2023-08-16T16:56:47.796Z,0.20
2023-08-16T16:59:14.777Z,0.10
2023-08-16T17:01:41.741Z,0.10
2023-08-16T17:04:08.984Z,0.00
2023-08-16T17:06:35.986Z,0.10
2023-08-16T17:09:03.216Z,0.10
2023-08-16T17:11:31.525Z,0.10
2023-08-16T17:13:58.822Z,0.10
2023-08-16T17:16:25.855Z,0.10
2023-08-16T17:18:53.048Z,0.10
2023-08-16T17:21:19.976Z,0.10
2023-08-16T17:23:47.358Z,0.10
2023-08-16T17:26:14.749Z,0.10
2023-08-16T17:28:43.325Z,0.10
2023-08-16T17:31:11.914Z,0.10
2023-08-16T17:33:39.617Z,0.10
2023-08-16T17:36:07.158Z,0.10
2023-08-16T17:38:34.116Z,0.10
2023-08-16T17:41:01.998Z,0.10
2023-08-16T17:43:29.954Z,0.10
2023-08-16T17:45:58.499Z,0.10
2023-08-16T17:48:25.498Z,0.10
2023-08-16T17:50:53.097Z,0.10
2023-08-16T17:53:21.716Z,0.10
2023-08-16T17:55:49.384Z,0.15
2023-08-16T17:58:20.087Z,0.10
2023-08-16T18:00:48.078Z,0.10
2023-08-16T18:03:16.562Z,0.10
2023-08-16T18:05:46.923Z,0.10
2023-08-16T18:08:14.090Z,0.10
2023-08-16T18:10:41.230Z,0.10
2023-08-16T18:13:08.124Z,0.10
2023-08-16T18:15:35.412Z,0.10
2023-08-16T18:18:02.514Z,0.10
2023-08-16T18:20:31.138Z,0.10
2023-08-16T18:22:59.173Z,0.17
2023-08-16T18:25:26.690Z,0.10
2023-08-16T18:27:53.554Z,0.10
2023-08-16T18:30:21.046Z,0.10
2023-08-16T18:32:48.136Z,0.10
2023-08-16T18:35:15.722Z,0.10
2023-08-16T18:37:44.022Z,0.10
2023-08-16T18:40:11.705Z,0.10
2023-08-16T18:42:38.532Z,0.10
2023-08-16T18:45:07.136Z,0.10
2023-08-16T18:47:34.153Z,0.10
2023-08-16T18:50:01.393Z,0.10
2023-08-16T18:52:28.529Z,0.10
2023-08-16T18:54:57.075Z,0.10
2023-08-16T18:57:24.892Z,0.10
2023-08-16T18:59:53.254Z,0.10
2023-08-16T19:02:20.954Z,0.10
2023-08-16T19:04:48.038Z,0.10
2023-08-16T19:07:15.349Z,0.10
2023-08-16T19:09:42.280Z,0.20
2023-08-16T19:12:13.207Z,0.10
2023-08-16T19:14:40.124Z,0.10
2023-08-16T19:17:07.663Z,0.10
2023-08-16T19:19:34.945Z,0.10
2023-08-16T19:22:02.371Z,0.10
2023-08-16T19:24:32.682Z,0.10
2023-08-16T19:27:00.231Z,0.10
2023-08-16T19:29:30.765Z,0.10
2023-08-16T19:31:58.246Z,0.10
2023-08-16T19:34:25.108Z,0.10
2023-08-16T19:36:52.421Z,0.20
2023-08-16T19:39:19.282Z,0.10
2023-08-16T19:41:46.573Z,0.10
2023-08-16T19:44:13.480Z,0.10
2023-08-16T19:46:42.195Z,0.10
2023-08-16T19:49:09.170Z,0.10
2023-08-16T19:51:36.394Z,0.10
2023-08-16T19:54:03.544Z,0.10
2023-08-16T19:56:30.837Z,0.10
2023-08-16T19:59:00.011Z,0.17
2023-08-16T20:01:27.657Z,0.10
2023-08-16T20:03:56.181Z,0.20
2023-08-16T20:06:23.639Z,0.10
2023-08-16T20:08:50.599Z,0.10
2023-08-16T20:11:17.891Z,0.10
2023-08-16T20:13:44.770Z,0.10
2023-08-16T20:16:11.702Z,0.10
2023-08-16T20:18:38.809Z,0.10
2023-08-16T20:21:07.082Z,0.20
2023-08-16T20:23:34.656Z,0.10
2023-08-16T20:26:01.548Z,0.10
2023-08-16T20:28:29.157Z,0.10
2023-08-16T20:30:56.140Z,0.10
2023-08-16T20:33:23.477Z,0.10
2023-08-16T20:35:50.560Z,0.10
2023-08-16T20:38:18.854Z,0.10
2023-08-16T20:40:45.723Z,0.10
2023-08-16T20:43:12.975Z,0.10
2023-08-16T20:45:40.267Z,0.20
2023-08-16T20:48:07.870Z,0.10
2023-08-16T20:50:35.424Z,0.10
2023-08-16T20:53:02.657Z,0.10
2023-08-16T20:55:32.354Z,0.10
2023-08-16T20:57:59.538Z,0.20
2023-08-16T21:00:26.660Z,0.10
2023-08-16T21:02:53.931Z,0.10
2023-08-16T21:05:21.350Z,0.10
2023-08-16T21:07:48.891Z,0.10
2023-08-16T21:10:15.820Z,0.10
2023-08-16T21:12:44.538Z,0.20
2023-08-16T21:15:11.739Z,0.10
2023-08-16T21:17:39.098Z,0.10
2023-08-16T21:20:07.306Z,0.10
2023-08-16T21:22:34.392Z,0.10
2023-08-16T21:25:02.710Z,0.10
2023-08-16T21:27:30.094Z,0.10
2023-08-16T21:29:58.311Z,0.10
2023-08-16T21:32:25.332Z,0.20
2023-08-16T21:34:52.678Z,0.10
2023-08-16T21:37:19.871Z,0.10
2023-08-16T21:39:49.694Z,0.17
2023-08-16T21:42:16.676Z,0.10
2023-08-16T21:44:43.966Z,0.10
2023-08-16T21:47:12.174Z,0.20
2023-08-16T21:49:39.105Z,0.15
2023-08-16T21:52:06.243Z,0.13
2023-08-16T21:54:33.196Z,0.20
2023-08-16T21:57:00.164Z,0.10
2023-08-16T21:59:27.246Z,0.20
2023-08-16T22:01:54.168Z,0.10
2023-08-16T22:04:22.862Z,0.20
2023-08-16T22:06:49.765Z,0.20
2023-08-16T22:09:17.312Z,0.20
2023-08-16T22:11:44.770Z,0.15
2023-08-16T22:14:13.551Z,0.10
2023-08-16T22:16:40.627Z,0.20
2023-08-16T22:19:07.871Z,0.20
2023-08-16T22:21:36.147Z,0.20
2023-08-16T22:24:03.567Z,0.10
2023-08-16T22:26:30.434Z,0.10
2023-08-16T22:28:58.160Z,0.10
2023-08-16T22:31:26.243Z,0.10
2023-08-16T22:33:56.481Z,0.20
2023-08-16T22:36:24.075Z,0.10
2023-08-16T22:38:52.652Z,0.10
2023-08-16T22:41:19.612Z,0.10
2023-08-16T22:43:49.029Z,0.20
2023-08-16T22:46:16.822Z,0.20
2023-08-16T22:48:44.209Z,0.10
2023-08-16T22:51:11.208Z,0.10
2023-08-16T22:53:38.444Z,0.10
2023-08-16T22:56:06.896Z,0.10
2023-08-16T22:58:33.818Z,0.20
2023-08-16T23:01:01.042Z,0.20
2023-08-16T23:20:42.196Z,0.20
2023-08-16T23:23:10.804Z,0.10
2023-08-16T23:25:38.129Z,0.10
2023-08-16T23:28:05.465Z,0.13
2023-08-16T23:30:32.702Z,0.10
2023-08-16T23:32:59.646Z,0.20
2023-08-16T23:35:26.620Z,0.20
2023-08-16T23:37:53.761Z,0.10
2023-08-16T23:40:22.487Z,0.20
2023-08-16T23:42:50.905Z,0.20
2023-08-16T23:45:18.243Z,0.20
2023-08-16T23:47:45.276Z,0.10
2023-08-16T23:50:12.529Z,0.13
2023-08-16T23:52:39.550Z,0.10
2023-08-16T23:55:08.070Z,0.10
2023-08-16T23:57:36.473Z,0.10
